createdAt,value
2018-02-16T00:00:38.229Z,1012.80
2018-02-16T00:01:38.242Z,1012.78
2018-02-16T00:02:38.253Z,1012.77
2018-02-16T00:03:38.266Z,1012.79
2018-02-16T00:04:38.274Z,1012.78
2018-02-16T00:05:38.286Z,1012.76
2018-02-16T00:06:38.298Z,1012.77
2018-02-16T00:07:38.307Z,1012.79
2018-02-16T00:08:38.320Z,1012.78
2018-02-16T00:09:38.330Z,1012.83
2018-02-16T00:10:38.343Z,1012.82
2018-02-16T00:11:38.353Z,1012.84
2018-02-16T00:12:38.364Z,1012.83
2018-02-16T00:13:38.375Z,1012.87
2018-02-16T00:14:38.386Z,1012.86
2018-02-16T00:15:38.396Z,1012.94
2018-02-16T00:16:38.408Z,1012.93
2018-02-16T00:17:38.418Z,1012.98
2018-02-16T00:18:38.432Z,1013.00
2018-02-16T00:19:38.442Z,1012.99
2018-02-16T00:20:38.453Z,1013.03
2018-02-16T00:21:38.464Z,1013.06
2018-02-16T00:22:38.476Z,1013.09
2018-02-16T00:23:38.587Z,1013.14
2018-02-16T00:24:38.497Z,1013.12
2018-02-16T00:25:38.509Z,1013.15
2018-02-16T00:26:38.520Z,1013.16
2018-02-16T00:27:38.531Z,1013.15
2018-02-16T00:28:38.539Z,1013.10
2018-02-16T00:29:38.552Z,1013.14
2018-02-16T00:30:38.562Z,1013.12
2018-02-16T00:31:38.572Z,1013.14
2018-02-16T00:32:38.582Z,1013.19
2018-02-16T00:33:38.596Z,1013.20
2018-02-16T00:34:38.607Z,1013.17
2018-02-16T00:35:38.618Z,1013.12
2018-02-16T00:36:38.626Z,1013.19
2018-02-16T00:37:38.636Z,1013.18
2018-02-16T00:38:38.649Z,1013.20
2018-02-16T00:39:38.660Z,1013.23
2018-02-16T00:40:38.672Z,1013.25
2018-02-16T00:41:38.683Z,1013.28
2018-02-16T00:42:38.693Z,1013.25
2018-02-16T00:43:38.713Z,1013.24
2018-02-16T00:44:38.716Z,1013.26
2018-02-16T00:45:38.726Z,1013.28
2018-02-16T00:46:38.736Z,1013.36
2018-02-16T00:47:38.745Z,1013.34
2018-02-16T00:48:38.757Z,1013.31
2018-02-16T00:49:38.768Z,1013.37
2018-02-16T00:50:38.781Z,1013.33
2018-02-16T00:51:38.789Z,1013.33
2018-02-16T00:52:38.800Z,1013.29
2018-02-16T00:53:38.811Z,1013.29
2018-02-16T00:54:38.823Z,1013.36
2018-02-16T00:55:38.832Z,1013.34
2018-02-16T00:56:38.843Z,1013.31
2018-02-16T00:57:38.854Z,1013.34
2018-02-16T00:58:38.866Z,1013.39
2018-02-16T00:59:38.874Z,1013.36
2018-02-16T01:00:38.887Z,1013.36
2018-02-16T01:01:38.899Z,1013.39
2018-02-16T01:02:38.908Z,1013.38
2018-02-16T01:03:38.918Z,1013.41
2018-02-16T01:04:38.937Z,1013.36
2018-02-16T01:05:38.940Z,1013.42
2018-02-16T01:06:38.951Z,1013.40
2018-02-16T01:07:38.960Z,1013.42
2018-02-16T01:08:38.971Z,1013.42
2018-02-16T01:09:38.983Z,1013.43
2018-02-16T01:10:38.995Z,1013.43
2018-02-16T01:11:39.004Z,1013.43
2018-02-16T01:12:39.016Z,1013.40
2018-02-16T01:13:39.026Z,1013.44
2018-02-16T01:14:39.036Z,1013.42
2018-02-16T01:15:39.047Z,1013.44
2018-02-16T01:16:39.058Z,1013.46
2018-02-16T01:17:39.071Z,1013.50
2018-02-16T01:18:39.086Z,1013.49
2018-02-16T01:19:39.090Z,1013.46
2018-02-16T01:20:39.100Z,1013.49
2018-02-16T01:21:39.114Z,1013.50
2018-02-16T01:22:39.123Z,1013.46
2018-02-16T01:23:39.132Z,1013.51
2018-02-16T01:24:39.142Z,1013.52
2018-02-16T01:25:39.153Z,1013.48
2018-02-16T01:26:39.165Z,1013.48
2018-02-16T01:27:39.175Z,1013.52
2018-02-16T01:28:39.186Z,1013.46
2018-02-16T01:29:39.190Z,1013.51
2018-02-16T01:30:39.197Z,1013.53
2018-02-16T01:31:39.210Z,1013.53
2018-02-16T01:32:39.220Z,1013.53
2018-02-16T01:33:39.229Z,1013.59
2018-02-16T01:34:39.341Z,1013.58
2018-02-16T01:35:39.250Z,1013.58
2018-02-16T01:36:39.260Z,1013.62
2018-02-16T01:37:39.272Z,1013.59
2018-02-16T01:38:39.282Z,1013.61
2018-02-16T01:39:39.297Z,1013.63
2018-02-16T01:40:39.304Z,1013.57
2018-02-16T01:41:39.317Z,1013.58
2018-02-16T01:42:39.324Z,1013.62
2018-02-16T01:43:39.336Z,1013.62
2018-02-16T01:44:39.346Z,1013.60
2018-02-16T01:45:39.355Z,1013.60
2018-02-16T01:46:39.367Z,1013.59
2018-02-16T01:47:39.376Z,1013.61
2018-02-16T01:48:39.387Z,1013.65
2018-02-16T01:49:39.397Z,1013.66
2018-02-16T01:50:39.407Z,1013.69
2018-02-16T01:51:39.417Z,1013.64
2018-02-16T01:52:39.428Z,1013.62
2018-02-16T01:53:39.440Z,1013.64
2018-02-16T01:54:39.450Z,1013.62
2018-02-16T01:55:39.476Z,1013.65
2018-02-16T01:56:39.468Z,1013.66
2018-02-16T01:57:39.480Z,1013.64
2018-02-16T01:58:39.493Z,1013.67
2018-02-16T01:59:39.500Z,1013.73
2018-02-16T02:00:39.511Z,1013.72
2018-02-16T02:01:39.520Z,1013.70
2018-02-16T02:02:39.532Z,1013.68
2018-02-16T02:03:39.542Z,1013.69
2018-02-16T02:04:39.551Z,1013.72
2018-02-16T02:05:39.564Z,1013.72
2018-02-16T02:06:39.572Z,1013.71
2018-02-16T02:07:39.583Z,1013.69
2018-02-16T02:08:39.593Z,1013.73
2018-02-16T02:09:39.603Z,1013.72
2018-02-16T02:10:39.615Z,1013.70
2018-02-16T02:11:39.621Z,1013.69
2018-02-16T02:12:39.635Z,1013.69
2018-02-16T02:13:39.645Z,1013.64
2018-02-16T02:14:39.657Z,1013.62
2018-02-16T02:15:39.666Z,1013.65
2018-02-16T02:16:39.677Z,1013.63
2018-02-16T02:17:39.687Z,1013.62
2018-02-16T02:18:39.697Z,1013.71
2018-02-16T02:19:39.707Z,1013.72
2018-02-16T02:20:39.717Z,1013.77
2018-02-16T02:21:39.729Z,1013.79
2018-02-16T02:22:39.739Z,1013.79
2018-02-16T02:23:39.754Z,1013.85
2018-02-16T02:24:39.761Z,1013.79
2018-02-16T02:25:39.770Z,1013.82
2018-02-16T02:26:39.785Z,1013.83
2018-02-16T02:27:39.794Z,1013.83
2018-02-16T02:28:39.809Z,1013.84
2018-02-16T02:29:39.812Z,1013.87
2018-02-16T02:30:39.827Z,1013.89
2018-02-16T02:31:39.837Z,1013.94
2018-02-16T02:32:39.843Z,1013.91
2018-02-16T02:33:39.854Z,1013.96
2018-02-16T02:34:39.867Z,1013.96
2018-02-16T02:35:39.874Z,1013.94
2018-02-16T02:36:39.885Z,1013.95
2018-02-16T02:37:39.896Z,1013.99
2018-02-16T02:38:39.907Z,1014.01
2018-02-16T02:39:39.916Z,1013.97
2018-02-16T02:40:39.928Z,1013.99
2018-02-16T02:41:39.939Z,1014.01
2018-02-16T02:42:39.948Z,1014.05
2018-02-16T02:43:39.960Z,1014.05
2018-02-16T02:44:39.968Z,1014.04
2018-02-16T02:45:39.980Z,1014.08
2018-02-16T02:46:39.990Z,1014.10
2018-02-16T02:47:40.000Z,1014.09
2018-02-16T02:48:40.012Z,1014.13
2018-02-16T02:49:40.026Z,1014.14
2018-02-16T02:50:40.035Z,1014.16
2018-02-16T02:51:40.041Z,1014.18
2018-02-16T02:52:40.053Z,1014.19
2018-02-16T02:53:40.064Z,1014.22
2018-02-16T02:54:40.074Z,1014.22
2018-02-16T02:55:40.072Z,1014.26
2018-02-16T02:56:40.082Z,1014.29
2018-02-16T02:57:40.093Z,1014.25
2018-02-16T02:58:40.104Z,1014.25
2018-02-16T02:59:40.113Z,1014.23
2018-02-16T03:00:40.124Z,1014.26
2018-02-16T03:01:40.134Z,1014.24
2018-02-16T03:02:40.145Z,1014.27
2018-02-16T03:03:40.155Z,1014.28
2018-02-16T03:04:40.165Z,1014.33
2018-02-16T03:05:40.177Z,1014.28
2018-02-16T03:06:40.187Z,1014.32
2018-02-16T03:07:40.197Z,1014.36
2018-02-16T03:08:40.205Z,1014.36
2018-02-16T03:09:40.217Z,1014.33
2018-02-16T03:10:40.229Z,1014.35
2018-02-16T03:11:40.239Z,1014.39
2018-02-16T03:12:40.251Z,1014.42
2018-02-16T03:13:40.260Z,1014.40
2018-02-16T03:14:40.271Z,1014.43
2018-02-16T03:15:40.305Z,1014.45
2018-02-16T03:16:40.291Z,1014.44
2018-02-16T03:17:40.302Z,1014.45
2018-02-16T03:18:40.313Z,1014.44
2018-02-16T03:19:40.323Z,1014.43
2018-02-16T03:20:40.333Z,1014.48
2018-02-16T03:21:40.343Z,1014.48
2018-02-16T03:22:40.355Z,1014.50
2018-02-16T03:23:40.364Z,1014.51
2018-02-16T03:24:40.376Z,1014.54
2018-02-16T03:25:40.384Z,1014.56
2018-02-16T03:26:40.396Z,1014.57
2018-02-16T03:27:40.406Z,1014.61
2018-02-16T03:28:40.415Z,1014.62
2018-02-16T03:29:40.426Z,1014.59
2018-02-16T03:30:40.438Z,1014.62
2018-02-16T03:31:40.448Z,1014.65
2018-02-16T03:32:40.456Z,1014.69
2018-02-16T03:33:40.469Z,1014.69
2018-02-16T03:34:40.480Z,1014.67
2018-02-16T03:35:40.489Z,1014.75
2018-02-16T03:36:40.499Z,1014.76
2018-02-16T03:37:40.510Z,1014.79
2018-02-16T03:38:40.520Z,1014.84
2018-02-16T03:39:40.531Z,1014.79
2018-02-16T03:40:40.542Z,1014.84
2018-02-16T03:41:40.552Z,1014.84
2018-02-16T03:42:40.562Z,1014.84
2018-02-16T03:43:40.571Z,1014.83
2018-02-16T03:44:40.583Z,1014.89
2018-02-16T03:45:40.593Z,1014.87
2018-02-16T03:46:40.603Z,1014.89
2018-02-16T03:47:40.614Z,1014.89
2018-02-16T03:48:40.626Z,1014.89
2018-02-16T03:49:40.634Z,1014.90
2018-02-16T03:50:40.646Z,1014.92
2018-02-16T03:51:40.654Z,1014.91
2018-02-16T03:52:40.664Z,1014.93
2018-02-16T03:53:40.676Z,1014.94
2018-02-16T03:54:40.686Z,1014.96
2018-02-16T03:55:40.696Z,1015.00
2018-02-16T03:56:40.707Z,1014.98
2018-02-16T03:57:40.718Z,1015.01
2018-02-16T03:58:40.730Z,1015.04
2018-02-16T03:59:40.737Z,1015.01
2018-02-16T04:00:40.748Z,1015.03
2018-02-16T04:01:40.759Z,1015.02
2018-02-16T04:02:40.768Z,1015.04
2018-02-16T04:03:40.779Z,1015.06
2018-02-16T04:04:40.789Z,1015.03
2018-02-16T04:05:40.799Z,1015.00
2018-02-16T04:06:40.810Z,1015.03
2018-02-16T04:07:40.821Z,1015.00
2018-02-16T04:08:40.831Z,1015.06
2018-02-16T04:09:40.841Z,1015.08
2018-02-16T04:10:40.852Z,1015.10
2018-02-16T04:11:40.862Z,1015.10
2018-02-16T04:12:40.872Z,1015.08
2018-02-16T04:13:40.882Z,1015.08
2018-02-16T04:14:40.892Z,1015.09
2018-02-16T04:15:40.902Z,1015.12
2018-02-16T04:16:40.912Z,1015.13
2018-02-16T04:17:40.924Z,1015.12
2018-02-16T04:18:40.934Z,1015.16
2018-02-16T04:19:40.944Z,1015.19
2018-02-16T04:20:40.953Z,1015.18
2018-02-16T04:21:40.966Z,1015.18
2018-02-16T04:22:40.975Z,1015.22
2018-02-16T04:23:41.085Z,1015.14
2018-02-16T04:24:40.997Z,1015.19
2018-02-16T04:25:41.007Z,1015.16
2018-02-16T04:26:41.016Z,1015.17
2018-02-16T04:27:41.028Z,1015.15
2018-02-16T04:28:41.036Z,1015.14
2018-02-16T04:29:41.049Z,1015.20
2018-02-16T04:30:41.078Z,1015.19
2018-02-16T04:31:41.081Z,1015.19
2018-02-16T04:32:41.090Z,1015.20
2018-02-16T04:33:41.101Z,1015.22
2018-02-16T04:34:41.111Z,1015.20
2018-02-16T04:35:41.120Z,1015.25
2018-02-16T04:36:41.133Z,1015.24
2018-02-16T04:37:41.143Z,1015.31
2018-02-16T04:38:41.153Z,1015.27
2018-02-16T04:39:41.162Z,1015.27
2018-02-16T04:40:41.174Z,1015.29
2018-02-16T04:41:41.183Z,1015.28
2018-02-16T04:42:41.196Z,1015.26
2018-02-16T04:43:41.204Z,1015.27
2018-02-16T04:44:41.215Z,1015.34
2018-02-16T04:45:41.225Z,1015.32
2018-02-16T04:46:41.237Z,1015.32
2018-02-16T04:47:41.246Z,1015.28
2018-02-16T04:48:41.256Z,1015.30
2018-02-16T04:49:41.268Z,1015.32
2018-02-16T04:50:41.282Z,1015.32
2018-02-16T04:51:41.287Z,1015.33
2018-02-16T04:52:41.297Z,1015.29
2018-02-16T04:53:41.312Z,1015.37
2018-02-16T04:54:41.320Z,1015.30
2018-02-16T04:55:41.330Z,1015.32
2018-02-16T04:56:41.344Z,1015.34
2018-02-16T04:57:41.349Z,1015.39
2018-02-16T04:58:41.362Z,1015.41
2018-02-16T04:59:41.373Z,1015.42
2018-02-16T05:00:41.381Z,1015.40
2018-02-16T05:01:41.391Z,1015.37
2018-02-16T05:02:41.503Z,1015.36
2018-02-16T05:03:41.412Z,1015.36
2018-02-16T05:04:41.421Z,1015.37
2018-02-16T05:05:41.434Z,1015.38
2018-02-16T05:06:41.443Z,1015.40
2018-02-16T05:07:41.453Z,1015.44
2018-02-16T05:08:41.465Z,1015.45
2018-02-16T05:09:41.473Z,1015.40
2018-02-16T05:10:41.483Z,1015.50
2018-02-16T05:11:41.494Z,1015.51
2018-02-16T05:12:41.506Z,1015.51
2018-02-16T05:13:41.519Z,1015.55
2018-02-16T05:14:41.527Z,1015.56
2018-02-16T05:15:41.534Z,1015.61
2018-02-16T05:16:41.546Z,1015.59
2018-02-16T05:17:41.556Z,1015.64
2018-02-16T05:18:41.567Z,1015.63
2018-02-16T05:19:41.575Z,1015.65
2018-02-16T05:20:41.587Z,1015.66
2018-02-16T05:21:41.597Z,1015.68
2018-02-16T05:22:41.607Z,1015.71
2018-02-16T05:23:41.616Z,1015.71
2018-02-16T05:24:41.628Z,1015.72
2018-02-16T05:25:41.638Z,1015.72
2018-02-16T05:26:41.650Z,1015.73
2018-02-16T05:27:41.658Z,1015.80
2018-02-16T05:28:41.670Z,1015.80
2018-02-16T05:29:41.680Z,1015.74
2018-02-16T05:30:41.687Z,1015.79
2018-02-16T05:31:41.698Z,1015.80
2018-02-16T05:32:41.710Z,1015.81
2018-02-16T05:33:41.724Z,1015.80
2018-02-16T05:34:41.729Z,1015.82
2018-02-16T05:35:41.739Z,1015.81
2018-02-16T05:36:41.748Z,1015.81
2018-02-16T05:37:41.761Z,1015.80
2018-02-16T05:38:41.771Z,1015.81
2018-02-16T05:39:41.780Z,1015.84
2018-02-16T05:40:41.790Z,1015.87
2018-02-16T05:41:41.803Z,1015.88
2018-02-16T05:42:41.811Z,1015.90
2018-02-16T05:43:41.821Z,1015.93
2018-02-16T05:44:41.832Z,1015.89
2018-02-16T05:45:41.843Z,1015.92
2018-02-16T05:46:41.854Z,1015.92
2018-02-16T05:47:41.862Z,1015.93
2018-02-16T05:48:41.875Z,1015.93
2018-02-16T05:49:41.883Z,1015.95
2018-02-16T05:50:41.894Z,1015.97
2018-02-16T05:51:41.903Z,1015.99
2018-02-16T05:52:41.913Z,1016.03
2018-02-16T05:53:41.927Z,1016.05
2018-02-16T05:54:41.934Z,1016.02
2018-02-16T05:55:41.944Z,1016.09
2018-02-16T05:56:41.954Z,1016.02
2018-02-16T05:57:41.964Z,1016.08
2018-02-16T05:58:41.973Z,1016.09
2018-02-16T05:59:41.984Z,1016.06
2018-02-16T06:00:41.995Z,1016.13
2018-02-16T06:01:42.004Z,1016.11
2018-02-16T06:02:42.015Z,1016.16
2018-02-16T06:03:42.025Z,1016.13
2018-02-16T06:04:42.035Z,1016.17
2018-02-16T06:05:42.046Z,1016.24
2018-02-16T06:06:42.057Z,1016.25
2018-02-16T06:07:42.069Z,1016.25
2018-02-16T06:08:42.076Z,1016.30
2018-02-16T06:09:42.086Z,1016.30
2018-02-16T06:10:42.098Z,1016.29
2018-02-16T06:11:42.108Z,1016.35
2018-02-16T06:12:42.117Z,1016.35
2018-02-16T06:13:42.127Z,1016.34
2018-02-16T06:14:42.137Z,1016.37
2018-02-16T06:15:42.147Z,1016.36
2018-02-16T06:16:42.161Z,1016.35
2018-02-16T06:17:42.168Z,1016.35
2018-02-16T06:18:42.178Z,1016.36
2018-02-16T06:19:42.187Z,1016.34
2018-02-16T06:20:42.196Z,1016.38
2018-02-16T06:21:42.208Z,1016.41
2018-02-16T06:22:42.218Z,1016.42
2018-02-16T06:23:42.230Z,1016.43
2018-02-16T06:24:42.239Z,1016.45
2018-02-16T06:25:42.251Z,1016.52
2018-02-16T06:26:42.259Z,1016.59
2018-02-16T06:27:42.267Z,1016.52
2018-02-16T06:28:42.279Z,1016.49
2018-02-16T06:29:42.288Z,1016.61
2018-02-16T06:30:42.302Z,1016.59
2018-02-16T06:31:42.310Z,1016.59
2018-02-16T06:32:42.319Z,1016.63
2018-02-16T06:33:42.330Z,1016.62
2018-02-16T06:34:42.342Z,1016.59
2018-02-16T06:35:42.350Z,1016.57
2018-02-16T06:36:42.361Z,1016.59
2018-02-16T06:37:42.398Z,1016.59
2018-02-16T06:38:42.381Z,1016.62
2018-02-16T06:39:42.391Z,1016.64
2018-02-16T06:40:42.401Z,1016.67
2018-02-16T06:41:42.411Z,1016.66
2018-02-16T06:42:42.422Z,1016.72
2018-02-16T06:43:42.432Z,1016.70
2018-02-16T06:44:42.440Z,1016.73
2018-02-16T06:45:42.451Z,1016.73
2018-02-16T06:46:42.461Z,1016.72
2018-02-16T06:47:42.472Z,1016.71
2018-02-16T06:48:42.482Z,1016.73
2018-02-16T06:49:42.492Z,1016.76
2018-02-16T06:50:42.503Z,1016.80
2018-02-16T06:51:42.513Z,1016.78
2018-02-16T06:52:42.522Z,1016.78
2018-02-16T06:53:42.534Z,1016.81
2018-02-16T06:54:42.547Z,1016.83
2018-02-16T06:55:42.553Z,1016.80
2018-02-16T06:56:42.564Z,1016.80
2018-02-16T06:57:42.573Z,1016.83
2018-02-16T06:58:42.585Z,1016.86
2018-02-16T06:59:42.593Z,1016.87
2018-02-16T07:00:42.603Z,1016.90
2018-02-16T07:01:42.615Z,1016.92
2018-02-16T07:02:42.624Z,1016.97
2018-02-16T07:03:42.634Z,1016.96
2018-02-16T07:04:42.643Z,1017.00
2018-02-16T07:05:42.657Z,1016.98
2018-02-16T07:06:42.665Z,1017.06
2018-02-16T07:07:42.674Z,1017.09
2018-02-16T07:08:42.687Z,1017.06
2018-02-16T07:09:42.697Z,1017.07
2018-02-16T07:10:42.706Z,1017.08
2018-02-16T07:11:42.716Z,1017.06
2018-02-16T07:12:42.732Z,1017.05
2018-02-16T07:13:42.724Z,1017.02
2018-02-16T07:14:42.735Z,1017.08
2018-02-16T07:15:42.754Z,1017.09
2018-02-16T07:16:42.766Z,1017.14
2018-02-16T07:17:42.764Z,1017.16
2018-02-16T07:18:42.776Z,1017.18
2018-02-16T07:19:42.786Z,1017.24
2018-02-16T07:20:42.794Z,1017.21
2018-02-16T07:21:42.807Z,1017.24
2018-02-16T07:22:42.817Z,1017.20
2018-02-16T07:23:42.837Z,1017.23
2018-02-16T07:24:42.847Z,1017.24
2018-02-16T07:25:42.846Z,1017.28
2018-02-16T07:26:42.856Z,1017.26
2018-02-16T07:27:42.880Z,1017.23
2018-02-16T07:28:42.877Z,1017.28
2018-02-16T07:29:42.887Z,1017.35
2018-02-16T07:30:42.897Z,1017.33
2018-02-16T07:31:42.905Z,1017.39
2018-02-16T07:32:42.927Z,1017.42
2018-02-16T07:33:42.927Z,1017.38
2018-02-16T07:34:42.939Z,1017.41
2018-02-16T07:35:42.947Z,1017.46
2018-02-16T07:36:42.964Z,1017.46
2018-02-16T07:37:43.150Z,1017.49
2018-02-16T07:38:42.992Z,1017.49
2018-02-16T07:40:43.057Z,1017.52
2018-02-16T07:41:43.006Z,1017.53
2018-02-16T07:42:43.018Z,1017.57
2018-02-16T07:43:43.038Z,1017.57
2018-02-16T07:44:43.049Z,1017.60
2018-02-16T07:45:43.058Z,1017.62
2018-02-16T07:46:43.058Z,1017.59
2018-02-16T07:47:43.068Z,1017.65
2018-02-16T07:48:43.091Z,1017.61
2018-02-16T07:49:43.130Z,1017.62
2018-02-16T07:50:43.110Z,1017.64
2018-02-16T07:51:43.108Z,1017.65
2018-02-16T07:52:43.130Z,1017.68
2018-02-16T07:53:43.128Z,1017.69
2018-02-16T07:54:43.140Z,1017.67
2018-02-16T07:55:43.161Z,1017.64
2018-02-16T07:56:43.171Z,1017.67
2018-02-16T07:57:43.171Z,1017.72
2018-02-16T07:58:43.183Z,1017.68
2018-02-16T07:59:43.201Z,1017.69
2018-02-16T08:00:43.214Z,1017.71
2018-02-16T08:01:43.212Z,1017.71
2018-02-16T08:02:43.234Z,1017.66
2018-02-16T08:03:43.232Z,1017.75
2018-02-16T08:04:43.253Z,1017.75
2018-02-16T08:05:43.256Z,1017.72
2018-02-16T08:06:43.265Z,1017.70
2018-02-16T08:07:43.274Z,1017.70
2018-02-16T08:08:43.295Z,1017.76
2018-02-16T08:09:43.296Z,1017.80
2018-02-16T08:10:43.318Z,1017.75
2018-02-16T08:11:43.315Z,1017.78
2018-02-16T08:12:43.325Z,1017.78
2018-02-16T08:13:43.337Z,1017.80
2018-02-16T08:14:43.359Z,1017.89
2018-02-16T08:15:43.518Z,1017.87
2018-02-16T08:16:43.380Z,1017.89
2018-02-16T08:17:43.377Z,1017.88
2018-02-16T08:18:43.392Z,1017.93
2018-02-16T08:19:43.410Z,1017.93
2018-02-16T08:20:43.410Z,1017.96
2018-02-16T08:21:43.421Z,1017.97
2018-02-16T08:22:43.431Z,1017.97
2018-02-16T08:23:43.443Z,1017.99
2018-02-16T08:24:43.462Z,1018.03
2018-02-16T08:25:43.466Z,1018.02
2018-02-16T08:26:43.486Z,1018.04
2018-02-16T08:27:44.152Z,1018.09
2018-02-16T08:28:43.503Z,1018.08
2018-02-16T08:29:43.504Z,1018.11
2018-02-16T08:30:43.514Z,1018.07
2018-02-16T08:31:43.539Z,1018.13
2018-02-16T08:32:43.536Z,1018.12
2018-02-16T08:33:43.562Z,1018.13
2018-02-16T08:34:43.569Z,1018.15
2018-02-16T08:35:43.567Z,1018.13
2018-02-16T08:36:43.578Z,1018.15
2018-02-16T08:37:43.589Z,1018.14
2018-02-16T08:38:43.600Z,1018.15
2018-02-16T08:39:43.653Z,1018.16
2018-02-16T08:40:43.620Z,1018.19
2018-02-16T08:41:43.631Z,1018.22
2018-02-16T08:42:43.642Z,1018.29
2018-02-16T08:43:43.652Z,1018.25
2018-02-16T08:44:43.676Z,1018.23
2018-02-16T08:45:43.687Z,1018.29
2018-02-16T08:46:43.695Z,1018.34
2018-02-16T08:47:43.695Z,1018.33
2018-02-16T08:48:43.706Z,1018.36
2018-02-16T08:49:43.728Z,1018.36
2018-02-16T08:50:43.740Z,1018.38
2018-02-16T08:51:43.737Z,1018.37
2018-02-16T08:52:43.749Z,1018.38
2018-02-16T08:54:43.771Z,1018.38
2018-02-16T08:55:43.791Z,1018.40
2018-02-16T08:56:43.797Z,1018.43
2018-02-16T08:57:43.803Z,1018.40
2018-02-16T08:58:43.813Z,1018.42
2018-02-16T08:59:43.828Z,1018.47
2018-02-16T09:00:43.833Z,1018.46
2018-02-16T09:01:43.857Z,1018.47
2018-02-16T09:02:43.867Z,1018.48
2018-02-16T09:03:43.866Z,1018.49
2018-02-16T09:04:43.878Z,1018.49
2018-02-16T09:05:43.901Z,1018.54
2018-02-16T09:06:43.899Z,1018.51
2018-02-16T09:07:43.910Z,1018.45
2018-02-16T09:08:43.921Z,1018.50
2018-02-16T09:09:43.934Z,1018.54
2018-02-16T09:10:43.944Z,1018.51
2018-02-16T09:11:43.965Z,1018.54
2018-02-16T09:12:43.964Z,1018.53
2018-02-16T09:13:43.976Z,1018.58
2018-02-16T09:14:43.987Z,1018.58
2018-02-16T09:15:44.007Z,1018.53
2018-02-16T09:16:44.008Z,1018.57
2018-02-16T09:17:44.030Z,1018.56
2018-02-16T09:18:44.031Z,1018.58
2018-02-16T09:19:44.053Z,1018.59
2018-02-16T09:20:44.052Z,1018.59
2018-02-16T09:21:44.063Z,1018.58
2018-02-16T09:22:44.074Z,1018.59
2018-02-16T09:23:44.123Z,1018.63
2018-02-16T09:24:44.096Z,1018.66
2018-02-16T09:25:44.107Z,1018.67
2018-02-16T09:26:44.118Z,1018.68
2018-02-16T09:27:44.130Z,1018.70
2018-02-16T09:28:44.149Z,1018.67
2018-02-16T09:29:44.150Z,1018.76
2018-02-16T09:30:45.777Z,1018.76
2018-02-16T09:31:44.170Z,1018.83
2018-02-16T09:32:44.185Z,1018.81
2018-02-16T09:33:44.194Z,1018.79
2018-02-16T09:34:44.218Z,1018.85
2018-02-16T09:35:44.215Z,1018.82
2018-02-16T09:36:44.227Z,1018.89
2018-02-16T09:37:45.174Z,1018.89
2018-02-16T09:38:44.262Z,1018.91
2018-02-16T09:39:44.261Z,1018.95
2018-02-16T09:40:44.272Z,1019.00
2018-02-16T09:41:44.284Z,1019.00
2018-02-16T09:42:44.295Z,1019.06
2018-02-16T09:43:44.308Z,1019.05
2018-02-16T09:44:44.317Z,1019.14
2018-02-16T09:45:44.331Z,1019.09
2018-02-16T09:46:44.351Z,1019.13
2018-02-16T09:47:44.362Z,1019.15
2018-02-16T09:48:44.361Z,1019.17
2018-02-16T09:49:44.384Z,1019.17
2018-02-16T09:50:44.388Z,1019.14
2018-02-16T09:51:44.407Z,1019.21
2018-02-16T09:52:44.406Z,1019.26
2018-02-16T09:53:44.418Z,1019.28
2018-02-16T09:54:44.430Z,1019.22
2018-02-16T09:55:44.442Z,1019.22
2018-02-16T09:56:44.453Z,1019.22
2018-02-16T09:57:44.464Z,1019.24
2018-02-16T09:58:44.476Z,1019.29
2018-02-16T09:59:44.487Z,1019.30
2018-02-16T10:00:44.498Z,1019.34
2018-02-16T10:01:44.522Z,1019.29
2018-02-16T10:02:44.524Z,1019.28
2018-02-16T10:03:44.533Z,1019.33
2018-02-16T10:04:44.545Z,1019.32
2018-02-16T10:05:44.556Z,1019.34
2018-02-16T10:06:44.568Z,1019.30
2018-02-16T10:07:44.579Z,1019.35
2018-02-16T10:08:44.591Z,1019.39
2018-02-16T10:09:44.700Z,1019.41
2018-02-16T10:10:44.629Z,1019.42
2018-02-16T10:11:44.636Z,1019.48
2018-02-16T10:12:44.639Z,1019.46
2018-02-16T10:13:44.648Z,1019.46
2018-02-16T10:14:44.722Z,1019.48
2018-02-16T10:15:44.673Z,1019.52
2018-02-16T10:16:44.683Z,1019.62
2018-02-16T10:17:44.695Z,1019.55
2018-02-16T10:18:44.705Z,1019.60
2018-02-16T10:19:44.721Z,1019.60
2018-02-16T10:20:44.898Z,1019.60
2018-02-16T10:21:44.752Z,1019.67
2018-02-16T10:22:44.754Z,1019.66
2018-02-16T10:23:44.823Z,1019.67
2018-02-16T10:24:44.773Z,1019.64
2018-02-16T10:25:44.785Z,1019.65
2018-02-16T10:26:44.808Z,1019.69
2018-02-16T10:27:44.818Z,1019.68
2018-02-16T10:28:44.820Z,1019.74
2018-02-16T10:29:44.832Z,1019.82
2018-02-16T10:30:44.856Z,1019.79
2018-02-16T10:31:44.854Z,1019.85
2018-02-16T10:32:44.865Z,1019.88
2018-02-16T10:33:44.890Z,1019.81
2018-02-16T10:34:44.894Z,1019.89
2018-02-16T10:35:44.902Z,1019.83
2018-02-16T10:36:44.944Z,1019.88
2018-02-16T10:37:45.622Z,1019.80
2018-02-16T10:38:44.955Z,1019.83
2018-02-16T10:39:45.671Z,1019.77
2018-02-16T10:40:44.975Z,1019.83
2018-02-16T10:41:44.976Z,1019.74
2018-02-16T10:42:44.989Z,1019.73
2018-02-16T10:43:44.999Z,1019.78
2018-02-16T10:44:45.012Z,1019.74
2018-02-16T10:45:45.024Z,1019.69
2018-02-16T10:46:45.035Z,1019.77
2018-02-16T10:47:45.048Z,1019.68
2018-02-16T10:48:45.058Z,1019.73
2018-02-16T10:49:45.097Z,1019.82
2018-02-16T10:50:45.096Z,1019.73
2018-02-16T10:51:45.184Z,1019.80
2018-02-16T10:52:45.117Z,1019.71
2018-02-16T10:53:45.122Z,1019.82
2018-02-16T10:54:45.133Z,1019.80
2018-02-16T10:55:45.143Z,1019.76
2018-02-16T10:56:47.036Z,1019.80
2018-02-16T10:57:45.767Z,1019.82
2018-02-16T10:58:46.021Z,1019.84
2018-02-16T10:59:45.953Z,1019.91
2018-02-16T11:02:45.227Z,1019.84
2018-02-16T11:03:45.236Z,1019.89
2018-02-16T11:04:45.249Z,1019.85
2018-02-16T11:05:45.261Z,1019.90
2018-02-16T11:06:45.276Z,1019.89
2018-02-16T11:07:45.296Z,1019.89
2018-02-16T11:08:45.297Z,1019.91
2018-02-16T11:09:45.321Z,1019.90
2018-02-16T11:10:45.331Z,1019.90
2018-02-16T11:11:45.343Z,1019.87
2018-02-16T11:12:45.344Z,1019.89
2018-02-16T11:13:45.366Z,1019.85
2018-02-16T11:14:45.378Z,1019.86
2018-02-16T11:15:45.375Z,1019.91
2018-02-16T11:16:45.403Z,1019.89
2018-02-16T11:17:45.515Z,1019.90
2018-02-16T11:18:45.415Z,1019.87
2018-02-16T11:19:45.423Z,1019.83
2018-02-16T11:20:45.897Z,1019.91
2018-02-16T11:21:45.452Z,1019.89
2018-02-16T11:22:45.474Z,1019.90
2018-02-16T11:23:45.522Z,1019.92
2018-02-16T11:24:45.495Z,1019.94
2018-02-16T11:25:45.497Z,1019.95
2018-02-16T11:26:45.510Z,1019.96
2018-02-16T11:27:45.622Z,1019.94
2018-02-16T11:28:45.538Z,1019.92
2018-02-16T11:29:45.548Z,1019.97
2018-02-16T11:30:45.559Z,1020.03
2018-02-16T11:31:45.574Z,1020.01
2018-02-16T11:32:45.584Z,1019.99
2018-02-16T11:33:45.596Z,1019.99
2018-02-16T11:34:45.619Z,1020.00
2018-02-16T11:35:45.624Z,1020.04
2018-02-16T11:36:45.633Z,1020.01
2018-02-16T11:37:45.645Z,1020.08
2018-02-16T11:38:45.658Z,1020.03
2018-02-16T11:39:45.669Z,1020.00
2018-02-16T11:40:45.683Z,1020.01
2018-02-16T11:41:45.695Z,1020.02
2018-02-16T11:42:45.708Z,1019.97
2018-02-16T11:43:45.720Z,1019.98
2018-02-16T11:44:45.732Z,1020.00
2018-02-16T11:45:45.745Z,1020.01
2018-02-16T11:46:45.758Z,1020.02
2018-02-16T11:47:45.773Z,1020.11
2018-02-16T11:48:45.788Z,1020.03
2018-02-16T11:49:45.798Z,1020.07
2018-02-16T11:50:45.809Z,1019.99
2018-02-16T11:51:45.821Z,1019.97
2018-02-16T11:52:45.834Z,1020.03
2018-02-16T11:53:45.847Z,1020.04
2018-02-16T11:54:45.906Z,1020.03
2018-02-16T11:55:45.872Z,1020.03
2018-02-16T11:56:45.886Z,1020.02
2018-02-16T11:57:45.916Z,1020.08
2018-02-16T11:58:45.912Z,1020.05
2018-02-16T11:59:45.923Z,1020.12
2018-02-16T12:00:45.937Z,1020.06
2018-02-16T12:01:45.949Z,1020.09
2018-02-16T12:02:45.962Z,1020.14
2018-02-16T12:03:45.987Z,1020.13
2018-02-16T12:04:45.990Z,1020.17
2018-02-16T12:05:46.013Z,1020.14
2018-02-16T12:06:46.025Z,1020.12
2018-02-16T12:07:46.026Z,1020.15
2018-02-16T12:08:46.050Z,1020.18
2018-02-16T12:09:46.052Z,1020.20